Time;durP1;ratioP1;P1;durP2;ratioP2;P2;SDS_P1;SDS_P2;PMS_P1;PMS_P2;Temp;Humidity;BMP_temperature;BMP_pressure;BME280_temperature;BME280_humidity;BME280_pressure;Samples;Min_cycle;Max_cycle;Signal;HPM_P1;HPM_P2
2020/12/30 00:00:09;;;;;;;17.08;10.32;;;0.40;99.90;;;;;;5051834;28;20071;-69
2020/12/30 00:02:35;;;;;;;12.43;8.52;;;0.40;99.90;;;;;;5051495;28;20053;-69
2020/12/30 00:05:04;;;;;;;15.68;8.63;;;0.40;99.90;;;;;;5051183;28;20470;-69
2020/12/30 00:07:32;;;;;;;12.95;7.90;;;0.40;99.90;;;;;;5051824;28;20024;-69
2020/12/30 00:09:58;;;;;;;15.43;9.00;;;0.40;99.90;;;;;;5051716;28;20021;-69
2020/12/30 00:12:28;;;;;;;14.50;8.18;;;0.50;99.90;;;;;;5051663;28;20048;-69
2020/12/30 00:14:57;;;;;;;13.75;8.55;;;0.50;99.90;;;;;;5051128;28;20020;-69
2020/12/30 00:17:23;;;;;;;15.18;8.75;;;0.50;99.90;;;;;;5052350;28;20436;-70
2020/12/30 00:19:49;;;;;;;16.50;9.07;;;0.50;99.90;;;;;;5043021;28;20033;-70
2020/12/30 00:22:15;;;;;;;13.00;9.25;;;0.40;99.90;;;;;;5031982;28;20030;-70
2020/12/30 00:24:41;;;;;;;16.13;10.00;;;0.60;99.90;;;;;;5030564;28;20022;-69
2020/12/30 00:27:07;;;;;;;14.05;8.65;;;0.50;99.90;;;;;;5033189;28;20425;-70
2020/12/30 00:29:32;;;;;;;17.00;9.95;;;0.60;99.90;;;;;;5032953;28;20029;-69
2020/12/30 00:31:58;;;;;;;14.38;8.73;;;0.60;99.90;;;;;;5031257;28;20030;-69
2020/12/30 00:34:24;;;;;;;12.27;8.98;;;0.60;99.90;;;;;;5030415;28;20037;-69
2020/12/30 00:36:51;;;;;;;13.45;9.25;;;0.60;99.90;;;;;;5031352;28;20395;-69
2020/12/30 00:39:17;;;;;;;19.10;10.30;;;0.70;99.90;;;;;;5034572;28;20049;-69
2020/12/30 00:41:42;;;;;;;19.42;10.00;;;0.80;99.90;;;;;;5051114;28;20102;-70
2020/12/30 00:44:08;;;;;;;14.30;9.32;;;0.90;99.90;;;;;;5051107;28;20560;-69
2020/12/30 00:46:34;;;;;;;16.60;10.48;;;1.00;99.90;;;;;;5054504;28;20048;-69
2020/12/30 00:49:00;;;;;;;18.35;9.90;;;1.10;99.90;;;;;;5053208;28;20372;-69
2020/12/30 00:51:25;;;;;;;15.65;9.52;;;1.20;99.90;;;;;;5054480;28;20032;-69
2020/12/30 00:53:51;;;;;;;13.55;9.40;;;1.20;99.90;;;;;;5052545;28;20028;-69
2020/12/30 00:56:17;;;;;;;14.10;9.77;;;1.20;99.90;;;;;;5053464;28;20036;-69
2020/12/30 00:58:42;;;;;;;14.40;9.43;;;1.30;99.90;;;;;;5053664;28;20029;-69
2020/12/30 01:01:09;;;;;;;14.70;9.73;;;1.40;99.90;;;;;;5054643;28;20094;-70
2020/12/30 01:03:35;;;;;;;13.75;9.40;;;1.30;99.90;;;;;;5053644;28;20445;-69
2020/12/30 01:06:03;;;;;;;12.85;9.20;;;1.40;99.90;;;;;;5054712;28;20020;-69
2020/12/30 01:08:29;;;;;;;15.15;9.50;;;1.50;99.90;;;;;;5054121;28;20078;-69
2020/12/30 01:10:55;;;;;;;13.80;9.55;;;1.50;99.90;;;;;;5054196;28;20120;-69
2020/12/30 01:13:21;;;;;;;13.20;8.52;;;1.50;99.90;;;;;;5053718;28;20067;-70
2020/12/30 01:15:47;;;;;;;14.55;8.90;;;1.50;99.90;;;;;;5053857;28;20021;-70
2020/12/30 01:18:13;;;;;;;14.05;9.55;;;1.60;99.90;;;;;;5053994;28;20029;-70
2020/12/30 01:20:39;;;;;;;12.95;8.73;;;1.60;99.90;;;;;;5053083;28;20029;-69
2020/12/30 01:23:05;;;;;;;13.93;8.45;;;1.60;99.90;;;;;;5052028;28;20029;-70
2020/12/30 01:25:30;;;;;;;12.43;8.82;;;1.60;99.90;;;;;;5053489;28;20391;-69
2020/12/30 01:27:56;;;;;;;14.65;9.20;;;1.70;99.90;;;;;;5054023;28;20021;-70
2020/12/30 01:30:23;;;;;;;12.88;8.95;;;1.70;99.90;;;;;;5053782;28;20075;-69
2020/12/30 01:32:49;;;;;;;12.18;7.68;;;1.80;99.90;;;;;;5052962;28;20025;-69
2020/12/30 01:35:14;;;;;;;13.18;6.93;;;1.60;99.90;;;;;;5052934;28;20033;-70
2020/12/30 01:37:41;;;;;;;10.68;6.70;;;1.50;99.90;;;;;;5053343;28;20029;-69
2020/12/30 01:40:07;;;;;;;8.95;6.82;;;1.30;99.90;;;;;;5053886;28;20506;-69
2020/12/30 01:42:45;;;;;;;10.32;6.72;;;1.30;99.90;;;;;;5053746;28;20428;-69
2020/12/30 01:45:11;;;;;;;8.82;5.63;;;1.10;99.90;;;;;;5053388;28;20079;-69
2020/12/30 01:47:37;;;;;;;8.98;6.07;;;1.00;99.90;;;;;;5053604;28;20743;-69
2020/12/30 01:50:05;;;;;;;10.65;7.00;;;1.00;99.90;;;;;;5052946;28;20055;-69
2020/12/30 01:52:31;;;;;;;10.30;7.25;;;0.90;99.90;;;;;;5053143;28;20513;-69
2020/12/30 01:54:58;;;;;;;12.20;8.05;;;0.90;99.90;;;;;;5052096;28;20657;-70
2020/12/30 01:57:23;;;;;;;11.63;7.82;;;0.90;99.90;;;;;;5053266;28;20082;-70
2020/12/30 01:59:49;;;;;;;12.70;8.68;;;0.90;99.90;;;;;;5053268;28;20033;-70
2020/12/30 02:02:15;;;;;;;14.38;8.70;;;1.00;99.90;;;;;;5053267;28;20368;-70
2020/12/30 02:04:49;;;;;;;13.85;9.10;;;1.00;99.90;;;;;;5052566;28;20032;-70
2020/12/30 02:07:16;;;;;;;14.30;8.50;;;1.00;99.90;;;;;;5053030;28;20048;-70
2020/12/30 02:09:43;;;;;;;9.90;7.60;;;0.90;99.90;;;;;;5050926;28;20028;-70
2020/12/30 02:12:09;;;;;;;17.10;8.88;;;0.80;99.90;;;;;;5051899;28;20091;-69
2020/12/30 02:14:35;;;;;;;12.70;8.00;;;0.80;99.90;;;;;;5052325;28;20376;-69
2020/12/30 02:17:01;;;;;;;10.50;7.50;;;0.70;99.90;;;;;;5052938;28;20024;-69
2020/12/30 02:19:27;;;;;;;11.77;8.27;;;0.70;99.90;;;;;;5052265;28;20025;-69
2020/12/30 02:21:59;;;;;;;12.73;7.90;;;0.70;99.90;;;;;;5052693;28;20037;-70
2020/12/30 02:24:25;;;;;;;;;;;0.70;99.90;;;;;;5052342;28;20032;-69
2020/12/30 02:26:51;;;;;;;9.32;7.20;;;0.80;99.90;;;;;;5052651;28;19915;-69
2020/12/30 02:29:17;;;;;;;14.13;7.57;;;0.60;99.90;;;;;;5052670;28;20025;-69
2020/12/30 02:31:42;;;;;;;13.30;8.35;;;0.60;99.90;;;;;;5052579;28;20060;-69
2020/12/30 02:34:08;;;;;;;13.18;7.97;;;0.70;99.90;;;;;;5051935;28;20060;-69
2020/12/30 02:36:34;;;;;;;12.55;6.78;;;0.60;99.90;;;;;;5052134;28;20112;-70
2020/12/30 02:38:59;;;;;;;11.27;7.07;;;0.50;99.90;;;;;;5052451;28;20032;-69
2020/12/30 02:41:25;;;;;;;8.57;6.80;;;0.40;99.90;;;;;;5052237;28;20033;-69
2020/12/30 02:43:51;;;;;;;8.98;6.97;;;0.30;99.90;;;;;;5051089;28;20526;-69
2020/12/30 02:46:17;;;;;;;10.63;7.65;;;0.20;99.90;;;;;;5052210;28;20495;-69
2020/12/30 02:48:42;;;;;;;11.75;7.88;;;0.20;99.90;;;;;;5050779;28;20021;-68
2020/12/30 02:51:08;;;;;;;10.45;7.32;;;0.20;99.90;;;;;;5052133;28;20075;-69
2020/12/30 02:53:34;;;;;;;10.98;7.57;;;0.10;99.90;;;;;;5068691;22;20084;-71
2020/12/30 02:55:59;;;;;;;13.63;8.85;;;0.00;99.90;;;;;;5048080;28;20510;-72
2020/12/30 02:58:25;;;;;;;12.70;7.65;;;0.00;99.90;;;;;;5052413;28;20021;-72
2020/12/30 03:00:51;;;;;;;11.45;7.53;;;0.00;99.90;;;;;;5052495;28;20037;-70
2020/12/30 03:03:16;;;;;;;8.18;6.88;;;-0.10;99.90;;;;;;5051765;28;20059;-72
2020/12/30 03:05:42;;;;;;;13.15;8.38;;;-0.10;99.90;;;;;;5052310;28;20029;-72
2020/12/30 03:08:08;;;;;;;9.20;6.63;;;-0.10;99.90;;;;;;5051561;28;20431;-72
2020/12/30 03:10:33;;;;;;;9.50;6.32;;;-0.10;99.90;;;;;;5052356;28;20044;-71
2020/12/30 03:12:59;;;;;;;13.32;6.45;;;0.00;99.90;;;;;;5051686;28;20200;-72
2020/12/30 03:15:25;;;;;;;9.50;6.82;;;-0.10;99.90;;;;;;5052533;28;20057;-71
2020/12/30 03:17:50;;;;;;;8.95;7.18;;;-0.10;99.90;;;;;;5050805;28;20037;-72
2020/12/30 03:20:16;;;;;;;10.70;6.82;;;-0.10;99.90;;;;;;5051875;28;20028;-73
2020/12/30 03:22:41;;;;;;;12.25;7.57;;;-0.20;99.90;;;;;;5051408;28;20029;-73
2020/12/30 03:25:07;;;;;;;13.00;7.78;;;-0.30;99.90;;;;;;5037567;28;20387;-72
2020/12/30 03:27:33;;;;;;;11.88;7.15;;;-0.30;99.90;;;;;;5031860;28;20466;-71
2020/12/30 03:29:58;;;;;;;10.70;8.15;;;-0.30;99.90;;;;;;5031804;28;20391;-72
2020/12/30 03:32:26;;;;;;;11.70;7.25;;;-0.30;99.90;;;;;;5031503;28;20471;-73
2020/12/30 03:34:51;;;;;;;12.57;7.32;;;-0.40;99.90;;;;;;5030961;28;20017;-73
2020/12/30 03:37:17;;;;;;;8.85;6.60;;;-0.30;99.90;;;;;;5031748;28;20087;-73
2020/12/30 03:39:42;;;;;;;8.38;6.70;;;-0.40;99.90;;;;;;5049431;28;20505;-72
2020/12/30 03:42:08;;;;;;;13.85;7.00;;;-0.30;99.90;;;;;;5051438;28;20554;-71
2020/12/30 03:44:34;;;;;;;11.15;5.95;;;-0.30;99.90;;;;;;5050826;28;20120;-73
2020/12/30 03:47:00;;;;;;;12.68;7.18;;;-0.30;99.90;;;;;;5050282;28;20028;-71
2020/12/30 03:49:26;;;;;;;11.60;7.95;;;-0.20;99.90;;;;;;5051454;28;20059;-71
2020/12/30 03:51:52;;;;;;;10.93;7.15;;;-0.10;99.90;;;;;;5050999;28;20049;-73
2020/12/30 03:54:18;;;;;;;14.55;8.27;;;-0.10;99.90;;;;;;5050294;28;20390;-71
2020/12/30 03:56:43;;;;;;;11.80;7.85;;;0.00;99.90;;;;;;5051316;28;20036;-73
2020/12/30 03:59:09;;;;;;;12.80;9.13;;;0.10;99.90;;;;;;5049844;28;20033;-74
2020/12/30 04:01:35;;;;;;;19.73;8.68;;;0.10;99.90;;;;;;5052291;28;20044;-74
2020/12/30 04:04:00;;;;;;;15.45;7.90;;;0.20;99.90;;;;;;5051770;28;20107;-74
2020/12/30 04:06:26;;;;;;;10.07;6.93;;;0.20;99.90;;;;;;5052043;28;20029;-73
2020/12/30 04:08:52;;;;;;;12.63;7.35;;;0.30;99.90;;;;;;5051915;28;20021;-74
2020/12/30 04:11:17;;;;;;;12.90;7.63;;;0.30;99.90;;;;;;5052591;28;20032;-73
2020/12/30 04:13:43;;;;;;;11.10;7.10;;;0.30;99.90;;;;;;5050682;28;20021;-72
2020/12/30 04:16:09;;;;;;;12.82;7.43;;;0.30;99.90;;;;;;5050188;28;20037;-72
2020/12/30 04:18:34;;;;;;;16.70;8.07;;;0.40;99.90;;;;;;5053362;28;20025;-71
2020/12/30 04:21:00;;;;;;;13.05;8.13;;;0.40;99.90;;;;;;5055830;28;20033;-73
2020/12/30 04:23:25;;;;;;;10.63;7.32;;;0.50;99.90;;;;;;5054339;28;20363;-73
2020/12/30 04:25:51;;;;;;;9.27;6.78;;;0.60;99.90;;;;;;5053847;28;20033;-71
2020/12/30 04:28:17;;;;;;;14.55;7.00;;;0.60;99.90;;;;;;5053606;28;20025;-73
2020/12/30 04:30:43;;;;;;;11.27;6.63;;;0.50;99.90;;;;;;5055080;28;20013;-73
2020/12/30 04:33:12;;;;;;;11.43;7.57;;;0.50;99.90;;;;;;5053252;28;20430;-73
2020/12/30 04:35:37;;;;;;;18.80;12.38;;;0.50;99.90;;;;;;5054620;28;20024;-74
2020/12/30 04:38:04;;;;;;;13.35;9.98;;;0.50;99.90;;;;;;5055037;28;20025;-73
2020/12/30 04:40:30;;;;;;;15.27;10.27;;;0.40;99.90;;;;;;5055083;28;20017;-71
2020/12/30 04:43:01;;;;;;;15.80;9.90;;;0.50;99.90;;;;;;5054154;28;20078;-71
2020/12/30 04:45:27;;;;;;;15.65;10.07;;;0.40;99.90;;;;;;5054966;28;20068;-73
2020/12/30 04:47:56;;;;;;;15.73;11.05;;;0.40;99.90;;;;;;5053506;28;20033;-73
2020/12/30 04:50:23;;;;;;;14.65;10.48;;;0.40;99.90;;;;;;5054114;28;20486;-73
2020/12/30 04:52:49;;;;;;;23.17;9.43;;;0.30;99.90;;;;;;5058205;28;20119;-73
2020/12/30 04:55:22;;;;;;;14.70;9.90;;;0.30;99.90;;;;;;5054923;28;20021;-71
2020/12/30 04:58:09;;;;;;;12.68;10.07;;;0.20;99.90;;;;;;5064369;28;20029;-73
2020/12/30 05:00:37;;;;;;;13.93;8.65;;;0.20;99.90;;;;;;5064730;28;20024;-73
2020/12/30 05:03:08;;;;;;;10.70;7.57;;;0.10;99.90;;;;;;5053890;28;20024;-72
2020/12/30 05:05:35;;;;;;;16.00;8.98;;;0.00;99.90;;;;;;5054605;28;20421;-73
2020/12/30 05:08:01;;;;;;;13.23;7.88;;;0.00;99.90;;;;;;5054531;28;20021;-73
2020/12/30 05:10:27;;;;;;;20.90;10.23;;;0.00;99.90;;;;;;5055066;28;20082;-74
2020/12/30 05:12:54;;;;;;;13.77;9.80;;;0.00;99.90;;;;;;5053565;28;20036;-73
2020/12/30 05:15:20;;;;;;;18.20;9.52;;;0.10;99.90;;;;;;5054232;28;20028;-72
2020/12/30 05:17:46;;;;;;;17.55;10.10;;;0.10;99.90;;;;;;5052649;28;20055;-71
2020/12/30 05:20:12;;;;;;;19.65;10.30;;;0.10;99.90;;;;;;5054141;28;20053;-73
2020/12/30 05:22:37;;;;;;;19.83;10.10;;;0.20;99.90;;;;;;5052080;28;20060;-72
2020/12/30 05:25:05;;;;;;;16.38;9.23;;;0.10;99.90;;;;;;5053986;28;20028;-73
2020/12/30 05:27:31;;;;;;;15.80;10.35;;;0.10;99.90;;;;;;5053994;28;20078;-73
2020/12/30 05:29:57;;;;;;;17.90;10.52;;;0.10;99.90;;;;;;5053135;28;20017;-72
2020/12/30 05:32:22;;;;;;;19.35;10.00;;;0.00;99.90;;;;;;5058386;28;20047;-71
2020/12/30 05:34:48;;;;;;;20.80;10.80;;;0.00;99.90;;;;;;5061310;28;20037;-71
2020/12/30 05:37:14;;;;;;;18.35;11.52;;;0.00;99.90;;;;;;5063157;28;20029;-71
2020/12/30 05:39:40;;;;;;;15.07;10.32;;;0.00;99.90;;;;;;5047605;28;20100;-71
2020/12/30 05:42:20;;;;;;;14.32;10.55;;;-0.10;99.90;;;;;;5047445;28;20029;-72
2020/12/30 05:44:50;;;;;;;19.00;11.35;;;-0.10;99.90;;;;;;5044934;28;20052;-74
2020/12/30 05:47:20;;;;;;;15.55;10.82;;;-0.10;99.90;;;;;;5045124;28;20113;-76
2020/12/30 05:49:47;;;;;;;16.63;11.02;;;0.00;99.90;;;;;;5035211;28;20356;-73
2020/12/30 05:52:24;;;;;;;18.90;11.18;;;0.00;99.90;;;;;;5033257;28;20029;-71
2020/12/30 05:54:59;;;;;;;16.50;10.75;;;0.00;99.90;;;;;;5032869;28;20083;-75
2020/12/30 05:57:32;;;;;;;18.52;11.32;;;0.00;99.90;;;;;;5032315;28;20037;-74
2020/12/30 06:00:09;;;;;;;18.13;10.65;;;0.10;99.90;;;;;;5033745;28;20024;-72
2020/12/30 06:02:43;;;;;;;19.05;11.40;;;0.10;99.90;;;;;;5033498;28;20033;-73
2020/12/30 06:05:14;;;;;;;16.90;10.57;;;0.20;99.90;;;;;;5033208;28;20057;-74
2020/12/30 06:07:42;;;;;;;16.83;11.02;;;0.20;99.90;;;;;;5033337;28;20026;-73
2020/12/30 06:10:10;;;;;;;16.40;9.90;;;0.30;99.90;;;;;;5033311;28;20104;-73
2020/12/30 06:13:03;;;;;;;20.70;11.07;;;0.30;99.90;;;;;;5031980;28;20503;-73
2020/12/30 06:15:31;;;;;;;17.40;11.07;;;0.20;99.90;;;;;;5032979;28;20582;-73
2020/12/30 06:18:09;;;;;;;16.92;10.90;;;0.30;99.90;;;;;;5033032;28;20476;-73
2020/12/30 06:20:40;;;;;;;15.93;10.18;;;0.30;99.90;;;;;;5025372;28;20028;-74
2020/12/30 06:23:10;;;;;;;15.70;10.95;;;0.40;99.90;;;;;;5030733;28;20029;-71
2020/12/30 06:25:40;;;;;;;17.83;9.40;;;0.40;99.90;;;;;;5032505;28;20060;-73
2020/12/30 06:28:08;;;;;;;19.30;10.90;;;0.40;99.90;;;;;;5032086;28;20025;-77
2020/12/30 06:30:34;;;;;;;13.50;10.05;;;0.40;99.90;;;;;;5031765;28;20052;-76
2020/12/30 06:33:01;;;;;;;14.88;10.15;;;0.40;99.90;;;;;;5038398;28;20104;-76
2020/12/30 06:35:28;;;;;;;13.85;9.40;;;0.40;99.90;;;;;;5032050;28;20024;-76
2020/12/30 06:37:54;;;;;;;15.18;9.68;;;0.40;99.90;;;;;;5045355;28;20025;-76
2020/12/30 06:40:20;;;;;;;14.95;9.20;;;0.30;99.90;;;;;;5032018;28;20029;-75
2020/12/30 06:42:46;;;;;;;13.25;7.78;;;0.20;99.90;;;;;;5031243;28;20451;-73
2020/12/30 06:45:14;;;;;;;12.13;7.88;;;0.10;99.90;;;;;;5031865;28;20033;-76
2020/12/30 06:48:05;;;;;;;13.63;7.90;;;0.00;99.90;;;;;;5032754;28;20017;-75
2020/12/30 06:50:31;;;;;;;12.45;7.45;;;-0.10;99.90;;;;;;5032215;28;20053;-74
2020/12/30 06:52:57;;;;;;;10.60;7.07;;;-0.20;99.90;;;;;;5039152;28;20061;-72
2020/12/30 06:55:45;;;;;;;13.63;7.60;;;-0.30;99.90;;;;;;5039001;28;20102;-73
2020/12/30 06:58:49;;;;;;;15.18;7.88;;;-0.40;99.90;;;;;;5029470;28;20564;-71
2020/12/30 07:01:17;;;;;;;11.88;7.90;;;-0.40;99.90;;;;;;5030956;28;20064;-76
2020/12/30 07:03:43;;;;;;;14.50;9.52;;;-0.50;99.90;;;;;;5031319;28;20117;-74
2020/12/30 07:06:25;;;;;;;12.95;9.55;;;-0.50;99.90;;;;;;5032242;28;20064;-69
2020/12/30 07:08:52;;;;;;;13.27;8.63;;;-0.40;99.90;;;;;;5031990;28;20079;-71
2020/12/30 07:11:38;;;;;;;12.80;8.38;;;-0.40;99.90;;;;;;5031639;28;20059;-72
2020/12/30 07:14:17;;;;;;;14.25;8.35;;;-0.30;99.90;;;;;;5031451;28;20022;-72
2020/12/30 07:16:51;;;;;;;10.95;7.85;;;-0.30;99.90;;;;;;5016033;28;20093;-70
2020/12/30 07:19:40;;;;;;;11.68;7.65;;;-0.20;99.90;;;;;;5015703;28;20097;-71
2020/12/30 07:22:15;;;;;;;10.45;6.85;;;-0.30;99.90;;;;;;5010543;28;20128;-70
2020/12/30 07:24:58;;;;;;;12.23;7.30;;;-0.30;99.90;;;;;;5015211;28;20542;-70
2020/12/30 07:27:30;;;;;;;8.85;7.22;;;-0.30;99.90;;;;;;5026551;28;20030;-70
2020/12/30 07:29:55;;;;;;;11.00;7.25;;;-0.30;99.90;;;;;;5015992;28;20532;-70
2020/12/30 07:32:21;;;;;;;11.88;7.13;;;-0.30;99.90;;;;;;5014382;28;20054;-72
2020/12/30 07:34:53;;;;;;;10.57;6.55;;;-0.30;99.90;;;;;;5025901;28;20029;-71
2020/12/30 07:37:20;;;;;;;11.20;6.90;;;-0.40;99.90;;;;;;5031759;28;20026;-71
2020/12/30 07:39:48;;;;;;;12.40;7.05;;;-0.40;99.90;;;;;;5029919;28;20053;-71
2020/12/30 07:42:16;;;;;;;12.98;7.57;;;-0.40;99.90;;;;;;5032704;28;20022;-74
2020/12/30 07:44:45;;;;;;;11.02;7.47;;;-0.30;99.90;;;;;;5030476;28;20025;-72
2020/12/30 07:47:12;;;;;;;12.50;7.05;;;-0.30;99.90;;;;;;5034043;28;20048;-71
2020/12/30 07:49:38;;;;;;;12.43;6.80;;;-0.20;99.90;;;;;;5037717;28;20049;-71
2020/12/30 07:52:04;;;;;;;8.32;6.28;;;-0.30;99.90;;;;;;5032197;28;20056;-71
2020/12/30 07:54:30;;;;;;;11.00;6.43;;;-0.20;99.90;;;;;;5043530;28;20028;-71
2020/12/30 07:57:07;;;;;;;11.25;7.05;;;-0.20;99.90;;;;;;5052007;28;20032;-71
2020/12/30 07:59:34;;;;;;;11.38;6.95;;;-0.10;99.90;;;;;;5056968;28;20029;-72
2020/12/30 08:02:16;;;;;;;10.40;6.75;;;0.20;99.90;;;;;;5072206;28;20031;-71
2020/12/30 08:04:43;;;;;;;;;;;1.10;99.90;;;;;;5055930;28;20031;-71
2020/12/30 08:07:13;;;;;;;7.47;5.65;;;1.40;99.90;;;;;;5050105;28;19909;-72
2020/12/30 08:09:41;;;;;;;8.15;6.45;;;1.40;99.90;;;;;;5050941;28;20049;-72
2020/12/30 08:12:10;;;;;;;9.20;6.65;;;1.20;99.90;;;;;;5051552;28;20383;-72
2020/12/30 08:14:38;;;;;;;7.97;5.43;;;1.00;99.90;;;;;;5047267;28;20109;-71
2020/12/30 08:17:14;;;;;;;10.18;6.15;;;0.90;99.90;;;;;;5013149;28;20770;-72
2020/12/30 08:19:40;;;;;;;11.88;6.43;;;0.90;99.90;;;;;;5010652;28;20025;-72
2020/12/30 08:22:21;;;;;;;12.48;6.25;;;0.90;99.90;;;;;;5011155;28;20048;-72
2020/12/30 08:24:51;;;;;;;9.40;6.10;;;0.90;99.90;;;;;;5026846;28;20026;-72
2020/12/30 08:27:22;;;;;;;9.05;6.15;;;1.00;99.90;;;;;;5012128;28;20042;-72
2020/12/30 08:29:49;;;;;;;7.68;6.10;;;1.00;99.90;;;;;;5028923;28;20014;-71
2020/12/30 08:32:35;;;;;;;8.15;5.80;;;1.10;99.90;;;;;;5030696;28;20069;-72
2020/12/30 08:35:11;;;;;;;7.95;6.35;;;1.20;99.90;;;;;;5028098;28;20053;-73
2020/12/30 08:37:47;;;;;;;9.85;7.75;;;1.40;99.90;;;;;;5033947;28;20468;-73
2020/12/30 08:40:30;;;;;;;9.75;7.63;;;1.60;99.90;;;;;;5029439;28;20120;-74
2020/12/30 08:43:35;;;;;;;13.52;10.00;;;1.70;99.90;;;;;;5030317;28;20032;-74
2020/12/30 08:46:23;;;;;;;16.08;11.20;;;1.90;99.90;;;;;;5031006;28;20028;-71
2020/12/30 08:48:50;;;;;;;15.43;11.40;;;2.10;99.90;;;;;;5030870;28;20101;-72
2020/12/30 08:51:31;;;;;;;12.88;10.00;;;2.40;99.90;;;;;;5031075;28;20028;-71
2020/12/30 08:53:57;;;;;;;8.82;7.82;;;2.90;99.90;;;;;;5038733;28;20490;-72
2020/12/30 08:56:23;;;;;;;8.90;7.35;;;3.20;99.90;;;;;;5057993;23;20557;-71
2020/12/30 08:58:53;;;;;;;10.40;5.82;;;3.70;99.90;;;;;;5055534;28;20016;-72
2020/12/30 09:01:24;;;;;;;9.18;6.10;;;4.70;99.90;;;;;;5045635;28;20029;-70
2020/12/30 09:03:50;;;;;;;7.35;4.68;;;5.00;99.90;;;;;;5052164;28;20025;-69
2020/12/30 09:06:27;;;;;;;9.75;5.00;;;5.50;99.90;;;;;;5032799;28;20029;-70
2020/12/30 09:08:53;;;;;;;5.80;4.30;;;6.00;99.90;;;;;;5034312;28;20017;-74
2020/12/30 09:11:18;;;;;;;5.68;4.50;;;6.70;99.90;;;;;;5034229;28;20021;-73
2020/12/30 09:13:44;;;;;;;7.22;5.95;;;7.60;99.90;;;;;;5033236;28;20370;-72
2020/12/30 09:16:12;;;;;;;9.15;5.53;;;8.40;99.90;;;;;;5049697;28;20431;-71
2020/12/30 09:18:38;;;;;;;6.38;5.43;;;9.10;99.90;;;;;;5053689;28;20048;-70
2020/12/30 09:21:18;;;;;;;6.07;5.03;;;8.70;99.90;;;;;;5054518;28;20103;-71
2020/12/30 09:23:44;;;;;;;8.82;5.18;;;8.00;99.90;;;;;;5045187;28;20030;-70
2020/12/30 09:26:09;;;;;;;5.78;4.30;;;7.20;99.90;;;;;;5033921;28;20044;-70
2020/12/30 09:28:35;;;;;;;8.55;4.93;;;6.60;99.90;;;;;;5032672;28;20017;-69
2020/12/30 09:31:05;;;;;;;5.93;4.15;;;6.30;99.90;;;;;;5035717;28;20017;-69
2020/12/30 09:33:32;;;;;;;5.43;3.95;;;6.10;99.90;;;;;;5053279;28;20720;-71
2020/12/30 09:36:06;;;;;;;5.38;4.15;;;6.00;99.90;;;;;;5053394;28;20074;-72
2020/12/30 09:38:31;;;;;;;4.07;3.72;;;6.10;99.90;;;;;;5053260;28;20025;-69
2020/12/30 09:40:57;;;;;;;5.05;3.72;;;6.30;99.90;;;;;;5053748;28;20386;-72
2020/12/30 09:43:25;;;;;;;4.80;3.83;;;6.60;99.90;;;;;;5052901;28;20409;-73
2020/12/30 09:46:00;;;;;;;8.48;4.60;;;6.80;99.90;;;;;;5053464;28;20415;-73
2020/12/30 09:48:26;;;;;;;8.63;4.50;;;6.70;99.90;;;;;;5053642;28;20487;-72
2020/12/30 09:50:53;;;;;;;6.05;4.20;;;6.30;99.90;;;;;;5035601;28;20584;-73
2020/12/30 09:53:20;;;;;;;6.65;4.38;;;5.90;99.90;;;;;;5052831;28;20025;-71
2020/12/30 09:55:47;;;;;;;7.80;5.07;;;6.50;99.90;;;;;;5052532;28;20025;-71
2020/12/30 09:58:13;;;;;;;8.60;4.65;;;6.60;99.90;;;;;;5053396;28;20025;-73
2020/12/30 10:00:39;;;;;;;5.97;4.18;;;7.20;99.90;;;;;;5053474;28;20047;-73
2020/12/30 10:03:05;;;;;;;4.95;3.90;;;6.50;99.90;;;;;;5052424;28;20383;-73
2020/12/30 10:05:31;;;;;;;4.43;3.42;;;6.10;99.90;;;;;;5052975;28;20104;-73
2020/12/30 10:07:57;;;;;;;3.72;3.10;;;6.50;99.90;;;;;;5053235;28;20108;-72
2020/12/30 10:10:23;;;;;;;3.72;3.25;;;6.70;99.90;;;;;;5053031;28;20454;-72
2020/12/30 10:12:49;;;;;;;3.92;3.17;;;6.90;99.90;;;;;;5052608;28;20060;-73
2020/12/30 10:15:17;;;;;;;3.60;3.20;;;7.10;99.90;;;;;;5052716;28;20096;-72
2020/12/30 10:17:43;;;;;;;3.67;3.33;;;6.90;99.90;;;;;;5053549;28;20070;-72
2020/12/30 10:20:10;;;;;;;4.50;3.30;;;7.30;99.90;;;;;;5054667;28;20115;-70
2020/12/30 10:22:40;;;;;;;3.60;2.80;;;8.80;99.90;;;;;;5038170;28;20112;-68
2020/12/30 10:25:09;;;;;;;3.38;2.83;;;11.20;99.90;;;;;;5056772;28;20039;-72
2020/12/30 10:27:35;;;;;;;3.58;2.55;;;14.50;99.90;;;;;;5053179;28;20098;-72
2020/12/30 10:30:01;;;;;;;2.53;2.33;;;15.90;92.10;;;;;;5053599;28;20021;-70
2020/12/30 10:32:26;;;;;;;3.47;2.58;;;16.30;91.00;;;;;;5055141;28;20021;-73
2020/12/30 10:34:52;;;;;;;4.60;3.28;;;15.50;89.00;;;;;;5055092;28;20721;-72
2020/12/30 10:37:18;;;;;;;5.63;2.97;;;12.50;92.80;;;;;;5056035;28;20474;-71
2020/12/30 10:39:45;;;;;;;4.90;3.00;;;10.40;97.50;;;;;;5055851;28;20379;-75
2020/12/30 10:42:11;;;;;;;3.88;3.20;;;9.90;99.80;;;;;;5054507;28;20070;-70
2020/12/30 10:44:36;;;;;;;3.42;3.13;;;10.20;99.90;;;;;;5051506;28;20387;-72
2020/12/30 10:47:02;;;;;;;3.63;3.10;;;10.00;99.90;;;;;;5034552;28;20642;-72
2020/12/30 10:49:28;;;;;;;3.47;2.78;;;9.60;99.90;;;;;;5052681;28;20017;-70
2020/12/30 10:51:54;;;;;;;3.88;3.38;;;9.50;99.90;;;;;;5053765;28;20075;-71
2020/12/30 10:54:20;;;;;;;4.93;3.50;;;9.00;99.90;;;;;;5051945;28;20052;-69
2020/12/30 10:56:50;;;;;;;5.05;3.95;;;8.50;99.90;;;;;;5052197;28;20139;-69
2020/12/30 10:59:16;;;;;;;4.20;3.70;;;7.90;99.90;;;;;;5052960;28;20036;-68
2020/12/30 11:01:42;;;;;;;5.10;3.50;;;7.50;99.90;;;;;;5052679;28;20036;-68
2020/12/30 11:04:08;;;;;;;5.10;3.78;;;7.30;99.90;;;;;;5051813;28;20029;-69
2020/12/30 11:06:34;;;;;;;3.97;3.58;;;7.20;99.90;;;;;;5051911;28;20112;-69
2020/12/30 11:08:59;;;;;;;3.65;2.85;;;7.40;99.90;;;;;;5052383;28;20032;-69
2020/12/30 11:11:25;;;;;;;4.75;2.80;;;8.10;99.90;;;;;;5035962;28;20433;-70
2020/12/30 11:13:51;;;;;;;6.70;3.08;;;8.20;99.90;;;;;;5052029;28;20013;-70
2020/12/30 11:16:16;;;;;;;6.40;3.55;;;8.40;99.90;;;;;;5050998;28;20033;-72
2020/12/30 11:18:43;;;;;;;4.22;2.97;;;8.50;99.90;;;;;;5051782;28;20044;-70
2020/12/30 11:21:09;;;;;;;3.80;2.63;;;8.20;99.90;;;;;;5051925;28;20025;-72
2020/12/30 11:23:35;;;;;;;7.13;3.47;;;7.60;99.90;;;;;;5051133;28;20099;-73
2020/12/30 11:26:00;;;;;;;5.82;3.78;;;6.90;99.90;;;;;;5051549;28;20112;-70
2020/12/30 11:28:26;;;;;;;3.33;2.90;;;6.70;99.90;;;;;;5050829;28;20017;-72
2020/12/30 11:30:52;;;;;;;4.25;3.20;;;6.70;99.90;;;;;;5051846;28;20100;-71
2020/12/30 11:33:17;;;;;;;6.82;3.60;;;6.40;99.90;;;;;;5054370;28;20079;-72
2020/12/30 11:35:44;;;;;;;6.68;3.95;;;6.30;99.90;;;;;;5051256;28;20024;-71
2020/12/30 11:38:10;;;;;;;3.88;3.47;;;6.40;99.90;;;;;;5050765;28;20072;-72
2020/12/30 11:40:38;;;;;;;5.82;3.42;;;6.30;99.90;;;;;;5051425;28;20024;-72
2020/12/30 11:43:04;;;;;;;3.42;3.13;;;6.10;99.90;;;;;;5050711;28;20029;-72
2020/12/30 11:45:29;;;;;;;5.05;3.58;;;5.80;99.90;;;;;;5052799;28;20020;-73
2020/12/30 11:47:58;;;;;;;5.32;3.80;;;5.80;99.90;;;;;;5075144;28;20043;-70
2020/12/30 11:50:25;;;;;;;5.80;3.53;;;5.70;99.90;;;;;;5064766;28;20635;-71
2020/12/30 11:52:50;;;;;;;5.85;4.03;;;5.90;99.90;;;;;;5060261;28;20033;-71
2020/12/30 11:55:16;;;;;;;6.90;3.85;;;6.00;99.90;;;;;;5052664;28;20032;-70
2020/12/30 11:57:42;;;;;;;5.63;3.22;;;6.10;99.90;;;;;;5050413;28;20120;-70
2020/12/30 12:00:09;;;;;;;4.25;3.60;;;6.00;99.90;;;;;;5051234;28;20133;-71
2020/12/30 12:02:35;;;;;;;6.63;3.35;;;5.80;99.90;;;;;;5050678;28;20482;-70
2020/12/30 12:05:02;;;;;;;4.53;3.55;;;5.80;99.90;;;;;;5050617;28;20032;-70
2020/12/30 12:07:28;;;;;;;6.78;4.43;;;6.00;99.90;;;;;;5051331;28;20017;-72
2020/12/30 12:09:54;;;;;;;6.47;4.35;;;6.40;99.90;;;;;;5050931;28;20036;-71
2020/12/30 12:12:20;;;;;;;5.00;3.80;;;6.40;99.90;;;;;;5050672;28;20032;-68
2020/12/30 12:14:46;;;;;;;5.05;4.05;;;6.50;99.90;;;;;;5050250;28;20018;-70
2020/12/30 12:17:11;;;;;;;8.75;4.10;;;6.50;99.90;;;;;;5035148;28;20047;-71
2020/12/30 12:19:37;;;;;;;8.18;4.30;;;6.60;99.90;;;;;;5060741;28;20035;-71
2020/12/30 12:22:02;;;;;;;5.53;3.92;;;6.40;99.90;;;;;;5060381;28;20025;-69
2020/12/30 12:24:28;;;;;;;4.82;3.42;;;6.50;99.90;;;;;;5061695;28;20029;-69
2020/12/30 12:26:54;;;;;;;6.68;3.40;;;6.40;99.90;;;;;;5064601;28;20040;-70
2020/12/30 12:29:22;;;;;;;5.85;3.85;;;6.60;99.90;;;;;;5043590;28;20511;-69
2020/12/30 12:32:17;;;;;;;6.25;4.20;;;6.90;99.90;;;;;;5051733;28;20495;-69
2020/12/30 12:34:45;;;;;;;4.93;3.70;;;7.00;99.90;;;;;;5050842;28;20032;-71
2020/12/30 12:37:11;;;;;;;4.95;2.90;;;7.30;99.90;;;;;;5054893;28;20029;-68
2020/12/30 12:39:39;;;;;;;8.13;3.10;;;7.40;99.90;;;;;;5069814;28;20017;-68
2020/12/30 12:42:05;;;;;;;3.67;2.97;;;7.40;99.90;;;;;;5073442;28;20037;-71
2020/12/30 12:44:31;;;;;;;4.47;3.00;;;7.20;99.90;;;;;;5067965;28;20108;-70
2020/12/30 12:46:57;;;;;;;6.90;2.88;;;7.20;99.90;;;;;;5054932;28;20450;-71
2020/12/30 12:49:24;;;;;;;4.15;2.75;;;7.10;99.90;;;;;;5054055;28;20112;-70
2020/12/30 12:51:51;;;;;;;5.15;2.42;;;7.00;99.90;;;;;;5036985;28;20064;-70